Daily Data: Northwest Mesa

   
2/18/18
Time         Wind Dir   Wind Spd  Wind Gust   Humidity       Temp  Dew Point   Barom SL  DailyRain   HourRain   RainRate
                            mph        mph          %         F         F         in         in         in      in/hr
12:00am           217          0          0         73       53.6       45.2      29.95       0.00       0.00      0.000
12:05am           217          0          0         73       53.8       45.4      29.95       0.00       0.00      0.000
12:10am           217          0          1         73       53.8       45.4      29.95       0.00       0.00      0.000
12:15am           216          0          0         73       53.8       45.4      29.94       0.00       0.00      0.000
12:20am           217          0          0         73       53.6       45.2      29.94       0.00       0.00      0.000
12:25am           217          0          0         73       53.5       45.1      29.94       0.00       0.00      0.000
12:30am           217          0          0         73       53.5       45.1      29.95       0.00       0.00      0.000
12:35am           217          0          0         73       53.3       44.9      29.95       0.00       0.00      0.000
12:40am           219          0          0         73       53.3       44.9      29.95       0.00       0.00      0.000
12:45am           217          0          0         73       53.3       44.9      29.95       0.00       0.00      0.000
12:50am           217          0          0         73       53.2       44.8      29.95       0.00       0.00      0.000
12:55am           217          0          0         73       53.1       44.7      29.95       0.00       0.00      0.000
1:00am            217          0          0         74       53.1       45.0      29.95       0.00       0.00      0.000
1:05am            217          0          0         74       53.1       45.0      29.95       0.00       0.00      0.000
1:10am            217          0          0         74       53.1       45.0      29.95       0.00       0.00      0.000
1:15am            217          0          0         74       53.1       45.0      29.95       0.00       0.00      0.000
1:20am            217          0          0         74       53.1       45.0      29.95       0.00       0.00      0.000
1:25am            217          0          0         74       53.1       45.0      29.95       0.00       0.00      0.000
1:30am            217          0          0         74       53.2       45.1      29.95       0.00       0.00      0.000
1:35am            217          0          0         74       53.1       45.0      29.95       0.00       0.00      0.000
1:40am            217          0          0         74       52.9       44.9      29.95       0.00       0.00      0.000
1:45am            217          0          0         74       52.8       44.8      29.94       0.00       0.00      0.000
1:50am            217          0          0         74       52.8       44.8      29.94       0.00       0.00      0.000
1:55am            217          0          0         74       52.6       44.6      29.94       0.00       0.00      0.000
2:00am            217          0          0         74       52.5       44.5      29.94       0.00       0.00      0.000
2:05am            217          0          0         74       52.3       44.3      29.94       0.00       0.00      0.000
2:10am            217          0          0         74       52.2       44.2      29.94       0.00       0.00      0.000
2:15am            217          0          0         74       52.2       44.2      29.94       0.00       0.00      0.000
2:20am            217          0          0         74       52.0       44.0      29.94       0.00       0.00      0.000
2:25am            217          0          0         75       51.9       44.2      29.94       0.00       0.00      0.000
2:30am            217          0          0         75       51.7       44.0      29.94       0.00       0.00      0.000
2:35am            217          0          0         75       51.6       43.9      29.94       0.00       0.00      0.000
2:40am            217          0          0         75       51.3       43.7      29.94       0.00       0.00      0.000
2:45am            217          0          0         75       51.1       43.5      29.94       0.00       0.00      0.000
2:50am            217          0          0         76       51.0       43.7      29.94       0.00       0.00      0.000
2:55am            216          0          0         76       50.8       43.5      29.94       0.00       0.00      0.000
3:00am            217          0          0         76       50.8       43.5      29.94       0.00       0.00      0.000
3:05am            217          0          0         76       50.7       43.4      29.94       0.00       0.00      0.000
3:10am            217          0          0         76       50.4       43.1      29.94       0.00       0.00      0.000
3:15am            217          0          0         77       50.4       43.5      29.94       0.00       0.00      0.000
3:20am            217          0          0         77       50.2       43.3      29.94       0.00       0.00      0.000
3:25am            217          0          0         77       50.1       43.2      29.94       0.00       0.00      0.000
3:30am            217          0          0         77       50.1       43.2      29.94       0.00       0.00      0.000
3:35am            217          0          0         77       50.1       43.2      29.94       0.00       0.00      0.000
3:40am            217          0          0         77       49.9       43.0      29.94       0.00       0.00      0.000
3:45am            217          0          0         78       49.9       43.3      29.94       0.00       0.00      0.000
3:50am            217          0          0         78       49.9       43.3      29.94       0.00       0.00      0.000
3:55am            217          0          0         78       49.8       43.2      29.94       0.00       0.00      0.000
4:00am            217          0          0         78       49.8       43.2      29.94       0.00       0.00      0.000
4:05am            217          0          0         78       49.8       43.2      29.94       0.00       0.00      0.000
4:10am            217          0          0         78       49.6       43.0      29.94       0.00       0.00      0.000
4:15am            217          0          0         79       49.6       43.4      29.93       0.00       0.00      0.000
4:20am            217          0          0         79       49.6       43.4      29.93       0.00       0.00      0.000
4:25am            217          0          0         79       49.5       43.3      29.93       0.00       0.00      0.000
4:30am            217          0          0         79       49.5       43.3      29.93       0.00       0.00      0.000
4:35am            217          0          0         79       49.6       43.4      29.93       0.00       0.00      0.000
4:40am            217          0          0         79       49.6       43.4      29.93       0.00       0.00      0.000
4:45am            217          0          0         79       49.5       43.3      29.92       0.00       0.00      0.000
4:50am            217          0          0         80       49.4       43.5      29.92       0.00       0.00      0.000
4:55am            217          0          0         80       49.4       43.5      29.92       0.00       0.00      0.000
5:00am            217          0          0         80       49.2       43.3      29.93       0.00       0.00      0.000
5:05am            217          0          0         80       49.2       43.3      29.93       0.00       0.00      0.000
5:10am            217          0          0         80       49.4       43.5      29.93       0.00       0.00      0.000
5:15am            217          0          0         80       49.4       43.5      29.93       0.00       0.00      0.000
5:20am            217          0          0         80       49.4       43.5      29.93       0.00       0.00      0.000
5:25am            217          0          1         80       49.2       43.3      29.93       0.00       0.00      0.000
5:30am            217          0          0         80       49.2       43.3      29.93       0.00       0.00      0.000
5:35am            217          0          0         80       49.1       43.2      29.93       0.00       0.00      0.000
5:40am            217          0          0         80       49.1       43.2      29.93       0.00       0.00      0.000
5:45am            217          0          0         80       49.1       43.2      29.92       0.00       0.00      0.000
5:50am            217          0          0         80       48.9       43.0      29.92       0.00       0.00      0.000
5:55am            217          0          0         80       49.1       43.2      29.92       0.00       0.00      0.000
6:00am            217          0          0         80       49.1       43.2      29.92       0.00       0.00      0.000
6:05am            217          0          2         80       49.1       43.2      29.92       0.00       0.00      0.000
6:10am            217          0          0         80       49.1       43.2      29.92       0.00       0.00      0.000
6:15am            217          0          1         80       49.1       43.2      29.92       0.00       0.00      0.000
6:20am            217          0          1         80       49.2       43.3      29.92       0.00       0.00      0.000
6:25am            217          0          1         80       49.4       43.5      29.92       0.00       0.00      0.000
6:30am            217          0          0         80       49.2       43.3      29.92       0.00       0.00      0.000
6:35am            217          0          0         80       49.2       43.3      29.92       0.00       0.00      0.000
6:40am            219          0          0         80       49.1       43.2      29.92       0.00       0.00      0.000
6:45am            217          0          0         80       48.9       43.0      29.92       0.00       0.00      0.000
6:50am            217          0          0         80       48.8       42.9      29.92       0.00       0.00      0.000
6:55am            217          0          0         80       48.5       42.6      29.92       0.00       0.00      0.000
7:00am            217          0          0         80       48.2       42.3      29.93       0.00       0.00      0.000
7:05am            217          0          0         80       48.0       42.1      29.93       0.00       0.00      0.000
7:10am            217          0          0         80       48.0       42.1      29.93       0.00       0.00      0.000
7:15am            217          0          0         80       47.9       42.0      29.93       0.00       0.00      0.000
7:20am            217          0          0         80       47.9       42.0      29.93       0.00       0.00      0.000
7:25am            217          0          0         81       47.9       42.4      29.93       0.00       0.00      0.000
7:30am            217          0          0         81       48.0       42.5      29.93       0.00       0.00      0.000
7:35am            217          0          0         81       48.2       42.7      29.93       0.00       0.00      0.000
7:40am            217          0          0         81       48.3       42.8      29.93       0.00       0.00      0.000
7:45am            217          0          0         81       48.5       42.9      29.93       0.00       0.00      0.000
7:50am            210          0          1         81       48.6       43.0      29.93       0.00       0.00      0.000
7:55am            233          0          1         81       48.6       43.0      29.93       0.00       0.00      0.000
8:00am            233          0          0         82       48.6       43.4      29.94       0.00       0.00      0.000
8:05am            233          0          0         82       48.8       43.6      29.94       0.00       0.00      0.000
8:10am            233          0          0         82       48.9       43.7      29.94       0.00       0.00      0.000
8:15am            233          0          0         82       49.4       44.1      29.94       0.00       0.00      0.000
8:20am            233          0          0         83       50.5       45.5      29.94       0.00       0.00      0.000
8:25am            223          0          0         82       51.6       46.3      29.94       0.00       0.00      0.000
8:30am            222          0          0         82       52.6       47.3      29.93       0.00       0.00      0.000
8:35am            220          1          1         81       53.5       47.8      29.93       0.00       0.00      0.000
8:40am            220          1          1         79       54.2       47.8      29.93       0.00       0.00      0.000
8:45am            219          2          2         78       55.0       48.3      29.93       0.00       0.00      0.000
8:50am            217          3          5         76       55.4       48.0      29.93       0.00       0.00      0.000
8:55am            202          2          3         75       55.7       47.9      29.93       0.00       0.00      0.000
9:00am            195          0          3         74       56.3       48.1      29.93       0.00       0.00      0.000
9:05am            195          0          2         73       56.9       48.3      29.93       0.00       0.00      0.000
9:10am            152          1          3         73       57.3       48.7      29.93       0.00       0.00      0.000
9:15am            123          1          3         71       57.6       48.3      29.94       0.00       0.00      0.000
9:20am            121          0          2         70       58.0       48.3      29.94       0.00       0.00      0.000
9:25am            123          1          3         69       58.6       48.5      29.94       0.00       0.00      0.000
9:30am            123          0          2         68       59.0       48.5      29.93       0.00       0.00      0.000
9:35am            119          0          3         68       59.5       48.9      29.93       0.00       0.00      0.000
9:40am            120          0          3         66       60.2       48.8      29.93       0.00       0.00      0.000
9:45am            131          0          3         65       60.5       48.7      29.93       0.00       0.00      0.000
9:50am            133          1          5         64       60.7       48.5      29.93       0.00       0.00      0.000
9:55am            133          3          3         64       61.2       48.9      29.93       0.00       0.00      0.000
10:00am           143          3          3         63       61.6       48.9      29.93       0.00       0.00      0.000
10:05am           144          2          3         62       61.6       48.5      29.93       0.00       0.00      0.000
10:10am           145          2          3         62       61.6       48.5      29.93       0.00       0.00      0.000
10:15am           145          1          2         62       62.1       48.9      29.93       0.00       0.00      0.000
10:20am           145          2          2         61       62.7       49.1      29.93       0.00       0.00      0.000
10:25am           145          1          3         60       63.2       49.1      29.93       0.00       0.00      0.000
10:30am           147          1          3         59       63.9       49.3      29.93       0.00       0.00      0.000
10:35am           147          2          4         58       64.2       49.1      29.93       0.00       0.00      0.000
10:40am           148          1          5         57       64.3       48.8      29.93       0.00       0.00      0.000
10:45am           150          4          5         56       64.7       48.7      29.92       0.00       0.00      0.000
10:50am           196          1          6         57       64.7       49.1      29.92       0.00       0.00      0.000
10:55am           160          3          6         56       64.8       48.8      29.92       0.00       0.00      0.000
11:00am           165          5          6         57       65.2       49.6      29.92       0.00       0.00      0.000
11:05am           157          4          6         56       65.6       49.5      29.92       0.00       0.00      0.000
11:10am           158          1          5         55       66.4       49.8      29.92       0.00       0.00      0.000
11:15am           184          4          6         53       67.1       49.4      29.92       0.00       0.00      0.000
11:20am           128          2          7         52       67.1       48.9      29.92       0.00       0.00      0.000
11:25am           185          6         11         52       66.9       48.7      29.92       0.00       0.00      0.000
11:30am           182          4          7         52       66.8       48.6      29.91       0.00       0.00      0.000
11:35am           158          2          8         52       66.6       48.4      29.91       0.00       0.00      0.000
11:40am           184          6          7         52       66.6       48.4      29.91       0.00       0.00      0.000
11:45am           164          8          8         51       67.1       48.4      29.91       0.00       0.00      0.000
11:50am           130          4          9         50       66.9       47.7      29.91       0.00       0.00      0.000
11:55am           164          3          9         50       67.3       48.0      29.91       0.00       0.00      0.000
12:00pm           192          5          8         48       67.8       47.4      29.89       0.00       0.00      0.000
12:05pm           154          6          9         46       68.6       47.0      29.89       0.00       0.00      0.000
12:10pm           240          3          8         46       68.4       46.8      29.89       0.00       0.00      0.000
12:15pm           158          2          9         45       68.4       46.3      29.89       0.00       0.00      0.000
12:20pm           165          4          8         45       67.9       45.8      29.89       0.00       0.00      0.000
12:25pm           175          5          8         46       68.1       46.6      29.89       0.00       0.00      0.000